Time;durP1;ratioP1;P1;durP2;ratioP2;P2;SDS_P1;SDS_P2;PMS_P1;PMS_P2;Temp;Humidity;BMP_temperature;BMP_pressure;BME280_temperature;BME280_humidity;BME280_pressure;Samples;Min_cycle;Max_cycle;Signal;HPM_P1;HPM_P2
2022/06/04 00:01:59;;;;;;;9.32;4.35;;;21.60;83.00;;;;;;5049795;28;20487;-64
2022/06/04 00:04:25;;;;;;;8.10;4.43;;;21.70;83.20;;;;;;5051665;28;20116;-64
2022/06/04 00:06:50;;;;;;;8.90;4.60;;;21.70;80.20;;;;;;5049871;28;20045;-64
2022/06/04 00:09:20;;;;;;;7.95;4.60;;;21.40;83.40;;;;;;5051742;28;20041;-65
2022/06/04 00:17:14;;;;;;;7.72;4.75;;;21.60;83.20;;;;;;5025097;28;20518;-64
2022/06/04 00:19:40;;;;;;;9.10;5.00;;;21.70;83.20;;;;;;5045263;28;20049;-64
2022/06/04 00:22:06;;;;;;;8.07;4.30;;;21.50;83.10;;;;;;5052401;28;20041;-64
2022/06/04 00:24:32;;;;;;;10.18;4.55;;;;;;;;;;5051256;28;20395;-64
2022/06/04 00:26:58;;;;;;;8.60;4.88;;;21.70;83.30;;;;;;5051835;28;20083;-63
2022/06/04 00:29:23;;;;;;;10.07;4.68;;;21.90;83.70;;;;;;5048843;28;20077;-64
2022/06/04 00:31:51;;;;;;;8.48;4.55;;;21.60;83.40;;;;;;5049434;28;20049;-64
2022/06/04 00:34:17;;;;;;;12.45;5.07;;;21.70;83.50;;;;;;5032460;28;20118;-64
2022/06/04 00:36:43;;;;;;;9.20;5.00;;;;;;;;;;5051410;28;20049;-64
2022/06/04 00:39:09;;;;;;;8.80;4.60;;;21.40;78.40;;;;;;5045183;28;20426;-64
2022/06/04 00:41:57;;;;;;;9.57;4.55;;;21.80;83.70;;;;;;5050519;28;20052;-64
2022/06/04 00:44:31;;;;;;;9.30;4.28;;;21.70;83.50;;;;;;5033357;28;20532;-64
2022/06/04 00:47:06;;;;;;;9.88;4.85;;;21.70;83.50;;;;;;5050336;28;20065;-64
2022/06/04 00:49:32;;;;;;;7.80;4.00;;;21.50;83.30;;;;;;5050267;28;20048;-64
2022/06/04 00:51:58;;;;;;;9.85;4.70;;;;;;;;;;5050444;28;20056;-64
2022/06/04 00:54:24;;;;;;;9.00;4.63;;;21.70;83.90;;;;;;5051047;28;20056;-64
2022/06/04 00:57:17;;;;;;;10.05;4.78;;;21.70;83.40;;;;;;5046754;28;20482;-65
2022/06/04 00:59:44;;;;;;;8.68;5.07;;;;;;;;;;5049301;28;20045;-63
2022/06/04 01:02:28;;;;;;;8.80;4.85;;;21.60;83.40;;;;;;5037798;28;20077;-65
2022/06/04 01:05:27;;;;;;;8.10;4.53;;;21.70;83.70;;;;;;5034952;28;20049;-64
2022/06/04 01:08:15;;;;;;;8.95;5.32;;;21.60;83.40;;;;;;5048356;28;20078;-64
2022/06/04 01:11:11;;;;;;;9.63;5.18;;;21.70;83.60;;;;;;5038881;28;20092;-64
2022/06/04 01:13:56;;;;;;;8.23;4.85;;;21.60;83.60;;;;;;5044304;28;20102;-64
2022/06/04 01:17:03;;;;;;;10.60;5.03;;;21.50;83.40;;;;;;5049870;28;20049;-64
2022/06/04 01:19:30;;;;;;;9.13;4.45;;;;;;;;;;5019593;28;20514;-64
2022/06/04 01:22:07;;;;;;;8.25;5.15;;;21.50;83.40;;;;;;5047778;28;20087;-64
2022/06/04 01:24:56;;;;;;;8.98;5.03;;;21.50;83.40;;;;;;5043670;28;20127;-65
2022/06/04 01:27:26;;;;;;;9.65;4.65;;;21.60;83.60;;;;;;5050560;28;20060;-65
2022/06/04 01:30:03;;;;;;;8.60;4.53;;;21.90;84.00;;;;;;5048454;28;20047;-64
2022/06/04 01:32:50;;;;;;;9.52;4.85;;;21.30;80.70;;;;;;5033043;28;20053;-64
2022/06/04 01:36:00;;;;;;;8.57;4.65;;;21.70;83.60;;;;;;5050022;28;20426;-65
2022/06/04 01:38:44;;;;;;;8.50;4.70;;;21.40;78.70;;;;;;5025637;28;20053;-64
2022/06/04 01:41:13;;;;;;;8.88;4.35;;;21.60;83.80;;;;;;5049153;28;20041;-64
2022/06/04 01:43:50;;;;;;;9.48;4.53;;;21.60;79.00;;;;;;5046574;28;20128;-64
2022/06/04 01:46:22;;;;;;;7.65;4.72;;;21.50;79.60;;;;;;5031288;28;20045;-64
2022/06/04 01:48:50;;;;;;;8.00;4.65;;;21.40;83.80;;;;;;5033518;28;20056;-64
2022/06/04 01:51:37;;;;;;;8.32;4.47;;;21.60;82.70;;;;;;5030343;28;20046;-64
2022/06/04 01:54:18;;;;;;;8.55;4.22;;;21.70;83.80;;;;;;5051797;28;20056;-64
2022/06/04 01:56:47;;;;;;;7.55;4.43;;;21.60;83.90;;;;;;5016596;28;20036;-64
2022/06/04 01:59:16;;;;;;;9.65;4.30;;;21.50;83.70;;;;;;5045083;28;20108;-64
2022/06/04 02:01:42;;;;;;;8.05;4.68;;;;;;;;;;5037598;28;20067;-64
2022/06/04 02:04:11;;;;;;;7.90;4.10;;;21.20;83.40;;;;;;5041210;28;20038;-64
2022/06/04 02:09:56;;;;;;;8.85;4.72;;;21.70;80.20;;;;;;4975469;28;20468;-64
2022/06/04 02:12:22;;;;;;;7.50;4.18;;;21.50;83.60;;;;;;4990680;28;20105;-64
2022/06/04 02:14:48;;;;;;;7.63;4.10;;;;;;;;;;4943790;28;20125;-64
2022/06/04 02:17:17;;;;;;;8.00;3.97;;;21.70;83.90;;;;;;4989256;28;20409;-64
2022/06/04 02:19:44;;;;;;;7.32;3.65;;;21.40;80.80;;;;;;4974977;28;20058;-64
2022/06/04 02:22:10;;;;;;;7.25;4.00;;;;;;;;;;4956027;28;20038;-67
2022/06/04 02:24:36;;;;;;;8.50;4.15;;;21.40;83.50;;;;;;4959364;28;20416;-64
2022/06/04 02:27:04;;;;;;;7.82;3.72;;;21.70;83.70;;;;;;4993924;28;20207;-64
2022/06/04 02:29:30;;;;;;;7.10;3.72;;;21.50;83.50;;;;;;4961374;28;20046;-64
2022/06/04 02:32:22;;;;;;;12.75;4.22;;;21.40;78.80;;;;;;4960867;28;20141;-64
2022/06/04 02:35:04;;;;;;;9.07;4.38;;;21.40;83.50;;;;;;4976177;28;20038;-64
2022/06/04 02:37:44;;;;;;;7.18;3.83;;;21.50;83.60;;;;;;4959489;28;20153;-64
2022/06/04 02:40:24;;;;;;;7.85;4.40;;;21.70;83.90;;;;;;4976712;28;20062;-64
2022/06/04 02:42:58;;;;;;;7.15;3.65;;;21.70;83.70;;;;;;4993559;28;20137;-64
2022/06/04 02:45:25;;;;;;;7.85;4.15;;;21.60;84.00;;;;;;5020460;28;20075;-64
2022/06/04 02:47:58;;;;;;;8.02;4.38;;;21.40;83.40;;;;;;5052615;28;20052;-64
2022/06/04 02:50:38;;;;;;;7.45;4.07;;;21.60;83.60;;;;;;5047503;28;20487;-64
2022/06/04 02:53:04;;;;;;;7.35;4.35;;;21.40;83.50;;;;;;5018758;28;20067;-64
2022/06/04 02:55:31;;;;;;;8.15;4.20;;;21.40;83.40;;;;;;5037724;28;20107;-64
2022/06/04 02:57:59;;;;;;;8.13;4.40;;;21.70;83.50;;;;;;5051485;28;20455;-64
2022/06/04 03:00:25;;;;;;;8.35;3.72;;;21.60;81.00;;;;;;5054719;28;20045;-64
2022/06/04 03:02:51;;;;;;;9.55;4.63;;;21.50;83.50;;;;;;5034371;28;20095;-64
2022/06/04 03:05:22;;;;;;;6.95;3.88;;;21.30;83.30;;;;;;5053309;28;20045;-64
2022/06/04 03:07:49;;;;;;;7.18;3.90;;;21.70;82.00;;;;;;5042218;28;20049;-65
2022/06/04 03:10:21;;;;;;;7.43;3.88;;;21.40;80.10;;;;;;5034952;28;20491;-64
2022/06/04 03:12:47;;;;;;;7.00;3.78;;;21.40;83.20;;;;;;5063192;28;20045;-63
2022/06/04 03:15:13;;;;;;;6.25;3.90;;;21.40;83.20;;;;;;5053047;28;20406;-64
2022/06/04 03:17:41;;;;;;;7.28;3.30;;;21.40;83.40;;;;;;5032557;28;20049;-64
2022/06/04 03:20:07;;;;;;;7.35;3.72;;;21.40;83.20;;;;;;5040606;28;20041;-64
2022/06/04 03:22:34;;;;;;;8.13;3.78;;;21.40;83.30;;;;;;5046719;28;20052;-64
2022/06/04 03:25:00;;;;;;;8.77;4.22;;;21.40;83.20;;;;;;5041641;28;20491;-64
2022/06/04 03:27:25;;;;;;;6.53;3.45;;;21.20;80.30;;;;;;5045354;28;20053;-64
2022/06/04 03:29:51;;;;;;;7.35;3.45;;;;;;;;;;5050626;28;20127;-64
2022/06/04 03:32:17;;;;;;;6.70;3.40;;;21.60;78.60;;;;;;5045371;28;20052;-65
2022/06/04 03:34:43;;;;;;;6.90;3.55;;;21.70;83.40;;;;;;5052513;28;20479;-64
2022/06/04 03:37:08;;;;;;;7.90;3.90;;;21.40;80.40;;;;;;5051882;28;20494;-64
2022/06/04 03:39:34;;;;;;;7.13;3.40;;;21.20;83.30;;;;;;5034518;28;20124;-64
2022/06/04 03:42:01;;;;;;;8.20;3.58;;;21.30;83.70;;;;;;5052325;28;20041;-64
2022/06/04 03:44:27;;;;;;;13.52;3.97;;;21.50;83.20;;;;;;5050287;28;20542;-64
2022/06/04 03:46:54;;;;;;;7.82;3.55;;;21.50;83.30;;;;;;5036107;28;20059;-64
2022/06/04 03:49:19;;;;;;;7.00;3.42;;;21.50;83.30;;;;;;5035434;28;20053;-64
2022/06/04 03:51:45;;;;;;;8.02;3.55;;;21.30;80.40;;;;;;5041083;28;20409;-64
2022/06/04 03:54:11;;;;;;;7.05;3.10;;;21.50;83.20;;;;;;5019470;28;20056;-64
2022/06/04 03:56:37;;;;;;;8.30;3.55;;;21.40;80.30;;;;;;5034727;28;20095;-64
2022/06/04 03:59:03;;;;;;;8.73;3.63;;;21.30;83.10;;;;;;5047634;28;20041;-67
2022/06/04 04:01:29;;;;;;;5.97;3.17;;;21.50;80.30;;;;;;5051137;28;20068;-64
2022/06/04 04:03:55;;;;;;;8.30;3.75;;;21.50;83.20;;;;;;5052409;28;20044;-64
2022/06/04 04:06:26;;;;;;;7.30;3.78;;;21.50;83.40;;;;;;5034919;28;20398;-64
2022/06/04 04:08:52;;;;;;;8.13;3.50;;;21.50;83.10;;;;;;5050698;28;20076;-64
2022/06/04 04:11:23;;;;;;;7.35;3.70;;;21.60;83.30;;;;;;5049256;28;20085;-64
2022/06/04 04:13:51;;;;;;;6.95;3.30;;;21.40;83.00;;;;;;5027412;28;20407;-64
2022/06/04 04:16:17;;;;;;;6.57;3.50;;;;;;;;;;5050922;28;20041;-64
2022/06/04 04:18:42;;;;;;;7.50;3.47;;;21.50;78.30;;;;;;5035929;28;20048;-65
2022/06/04 04:21:10;;;;;;;7.57;3.55;;;21.60;82.90;;;;;;5050224;28;20036;-64
2022/06/04 04:23:36;;;;;;;9.00;3.40;;;;;;;;;;5050397;28;20045;-64
2022/06/04 04:26:02;;;;;;;7.90;3.92;;;21.80;83.30;;;;;;5047249;28;20080;-64
2022/06/04 04:28:28;;;;;;;7.65;3.53;;;21.70;82.90;;;;;;5048867;28;20136;-64
2022/06/04 04:30:54;;;;;;;8.80;3.70;;;21.50;82.80;;;;;;5050777;28;20492;-64
2022/06/04 04:33:19;;;;;;;7.43;3.53;;;21.60;83.00;;;;;;5049574;28;20060;-64
2022/06/04 04:35:46;;;;;;;7.35;3.60;;;;;;;;;;5049210;28;20041;-64
2022/06/04 04:38:11;;;;;;;6.30;3.30;;;21.90;83.10;;;;;;5034887;28;20053;-64
2022/06/04 04:40:38;;;;;;;7.07;3.30;;;;;;;;;;5051611;28;20045;-64
2022/06/04 04:43:03;;;;;;;7.65;3.85;;;21.70;82.80;;;;;;5051082;28;20095;-64
2022/06/04 04:45:29;;;;;;;6.30;3.13;;;21.40;82.50;;;;;;5050487;28;20084;-64
2022/06/04 04:47:56;;;;;;;8.15;3.75;;;;;;;;;;5032375;28;20048;-64
2022/06/04 04:50:33;;;;;;;7.65;3.60;;;21.80;78.00;;;;;;5031932;28;20053;-65
2022/06/04 04:53:01;;;;;;;8.90;3.28;;;21.80;82.80;;;;;;5047464;28;20055;-64
2022/06/04 04:55:27;;;;;;;8.13;3.50;;;22.10;82.80;;;;;;5048758;28;20142;-64
2022/06/04 04:57:53;;;;;;;7.35;3.83;;;22.10;82.50;;;;;;5047409;28;20072;-64
2022/06/04 05:00:20;;;;;;;7.25;3.35;;;22.40;82.20;;;;;;5049555;28;20037;-64
2022/06/04 05:02:45;;;;;;;6.88;3.50;;;22.40;79.50;;;;;;5050855;28;20410;-64
2022/06/04 05:05:12;;;;;;;7.70;3.70;;;22.60;81.50;;;;;;5051147;28;20041;-64
2022/06/04 05:07:38;;;;;;;5.93;3.20;;;22.70;78.70;;;;;;5051037;28;20080;-64
2022/06/04 05:10:05;;;;;;;7.20;3.67;;;23.10;80.70;;;;;;5033125;28;20055;-64
2022/06/04 05:12:31;;;;;;;7.93;3.90;;;23.10;80.20;;;;;;5051264;28;20053;-64
2022/06/04 05:14:56;;;;;;;7.90;3.80;;;23.70;80.30;;;;;;5034043;28;20051;-64
2022/06/04 05:17:22;;;;;;;7.85;3.80;;;23.50;79.70;;;;;;5034221;28;20049;-64
2022/06/04 05:19:48;;;;;;;7.45;3.75;;;23.50;77.20;;;;;;5049104;28;20057;-64
2022/06/04 05:22:14;;;;;;;7.57;3.58;;;24.00;79.20;;;;;;5048819;28;20041;-64
2022/06/04 05:24:39;;;;;;;6.93;3.80;;;24.00;76.70;;;;;;5035191;28;20407;-65
2022/06/04 05:27:08;;;;;;;8.10;4.20;;;24.00;79.00;;;;;;5036744;28;20477;-64
2022/06/04 05:29:36;;;;;;;7.65;4.00;;;23.80;78.60;;;;;;5058798;28;20090;-64
2022/06/04 05:32:02;;;;;;;7.63;3.95;;;24.10;76.10;;;;;;5048869;28;20057;-64
2022/06/04 05:34:28;;;;;;;7.72;4.00;;;24.20;75.70;;;;;;5066104;28;20072;-64
2022/06/04 05:36:54;;;;;;;6.38;3.60;;;24.60;75.90;;;;;;5051481;28;20065;-64
2022/06/04 05:39:20;;;;;;;9.63;4.13;;;24.40;75.40;;;;;;5018840;28;20061;-64
2022/06/04 05:41:46;;;;;;;7.25;3.88;;;24.50;75.30;;;;;;5039794;28;20041;-65
2022/06/04 05:44:12;;;;;;;7.75;3.95;;;24.80;77.40;;;;;;5051015;28;20052;-64
2022/06/04 05:46:41;;;;;;;6.75;3.67;;;24.60;75.00;;;;;;5043817;28;20054;-65
2022/06/04 05:49:07;;;;;;;6.78;3.60;;;24.80;75.10;;;;;;5044907;28;20404;-64
2022/06/04 05:51:33;;;;;;;7.38;3.90;;;24.60;74.70;;;;;;5051824;28;20041;-64
2022/06/04 05:54:00;;;;;;;8.00;3.75;;;25.00;77.00;;;;;;5050823;28;20087;-64
2022/06/04 05:56:29;;;;;;;7.97;3.72;;;24.80;74.60;;;;;;5033447;28;20068;-65
2022/06/04 05:58:57;;;;;;;7.50;4.07;;;24.90;74.70;;;;;;5049958;28;20402;-65
2022/06/04 06:01:23;;;;;;;6.82;3.80;;;25.10;74.80;;;;;;5070173;28;20067;-65
2022/06/04 06:03:49;;;;;;;8.27;3.90;;;25.30;74.50;;;;;;5038334;28;20040;-64
2022/06/04 06:06:16;;;;;;;8.82;4.15;;;25.10;73.90;;;;;;5053446;28;20394;-65
2022/06/04 06:08:42;;;;;;;7.93;4.30;;;24.80;74.30;;;;;;5052717;28;20056;-65
2022/06/04 06:11:09;;;;;;;8.85;4.32;;;25.10;74.20;;;;;;5053024;28;20108;-65
2022/06/04 06:13:35;;;;;;;11.10;5.10;;;25.30;74.40;;;;;;5055397;28;20052;-64
2022/06/04 06:16:11;;;;;;;10.40;4.90;;;25.30;76.70;;;;;;5046099;28;20039;-64
2022/06/04 06:18:37;;;;;;;9.45;4.40;;;25.30;72.70;;;;;;5035427;28;20450;-65
2022/06/04 06:21:10;;;;;;;12.07;5.30;;;25.40;73.90;;;;;;5051401;28;20041;-64
2022/06/04 06:23:36;;;;;;;9.63;4.65;;;25.10;72.40;;;;;;5055258;28;20548;-64
2022/06/04 06:26:06;;;;;;;11.82;5.47;;;25.10;73.50;;;;;;5054081;28;20045;-65
2022/06/04 06:28:33;;;;;;;10.82;5.65;;;25.30;74.00;;;;;;5054078;28;20061;-64
2022/06/04 06:30:59;;;;;;;13.15;6.50;;;25.50;74.00;;;;;;5051557;28;20049;-65
2022/06/04 06:33:25;;;;;;;15.55;5.93;;;25.30;73.40;;;;;;5045657;28;20528;-64
2022/06/04 06:35:58;;;;;;;12.50;6.15;;;25.30;73.50;;;;;;5054745;28;20095;-65
2022/06/04 06:38:23;;;;;;;14.93;6.35;;;25.40;73.60;;;;;;5036264;28;20049;-64
2022/06/04 06:40:49;;;;;;;15.63;6.53;;;25.50;73.40;;;;;;5051041;28;20136;-64
2022/06/04 06:43:15;;;;;;;13.88;6.93;;;25.50;73.30;;;;;;5046479;28;20042;-69
2022/06/04 06:45:41;;;;;;;16.13;8.20;;;25.40;73.20;;;;;;5063467;28;20094;-65
2022/06/04 06:48:08;;;;;;;16.30;7.00;;;25.40;73.30;;;;;;5052126;28;20045;-66
2022/06/04 06:50:34;;;;;;;14.52;7.65;;;25.20;73.10;;;;;;5052626;28;20372;-66
2022/06/04 06:53:00;;;;;;;15.13;7.72;;;25.30;73.00;;;;;;5049743;28;20098;-65
2022/06/04 06:55:26;;;;;;;14.85;8.13;;;25.30;73.20;;;;;;5038019;28;20049;-66
2022/06/04 06:57:52;;;;;;;18.10;8.55;;;25.40;73.20;;;;;;5053742;28;20484;-67
2022/06/04 07:00:18;;;;;;;14.88;7.90;;;25.30;73.30;;;;;;5015542;28;20106;-66
2022/06/04 07:02:44;;;;;;;15.30;8.93;;;25.20;73.10;;;;;;5043122;28;20090;-66
2022/06/04 07:05:10;;;;;;;17.70;9.25;;;25.40;73.40;;;;;;5048288;28;20052;-66
2022/06/04 07:07:35;;;;;;;14.95;7.97;;;25.10;72.70;;;;;;5051661;28;20040;-66
2022/06/04 07:10:01;;;;;;;14.00;8.45;;;25.30;73.10;;;;;;5018670;28;20128;-67
2022/06/04 07:12:27;;;;;;;12.70;8.07;;;25.30;72.80;;;;;;5054416;28;20491;-66
2022/06/04 07:14:53;;;;;;;15.35;8.30;;;25.30;72.80;;;;;;5055343;28;20033;-66
2022/06/04 07:17:19;;;;;;;12.80;7.30;;;25.40;72.60;;;;;;5052853;28;20486;-67
2022/06/04 07:19:44;;;;;;;14.25;7.97;;;25.60;73.00;;;;;;5045931;28;20079;-65
2022/06/04 07:22:10;;;;;;;13.98;8.13;;;25.60;72.60;;;;;;5047296;28;20045;-67
2022/06/04 07:24:37;;;;;;;12.10;7.35;;;25.40;72.70;;;;;;5036403;28;20395;-64
2022/06/04 07:27:03;;;;;;;10.95;7.22;;;25.40;72.20;;;;;;5036750;28;20084;-64
2022/06/04 07:29:29;;;;;;;13.38;8.15;;;25.60;72.20;;;;;;5032394;28;20041;-65
2022/06/04 07:31:55;;;;;;;12.07;7.53;;;25.50;71.90;;;;;;5049425;28;20055;-65
2022/06/04 07:34:21;;;;;;;12.57;7.43;;;25.70;72.40;;;;;;5054230;28;20041;-65
2022/06/04 07:36:46;;;;;;;12.10;6.82;;;25.70;72.20;;;;;;5036194;28;20045;-65
2022/06/04 07:39:18;;;;;;;14.38;6.65;;;25.70;72.30;;;;;;5051724;28;20049;-67
2022/06/04 07:41:45;;;;;;;9.95;6.63;;;25.70;72.50;;;;;;5034670;28;20045;-66
2022/06/04 07:44:13;;;;;;;10.43;6.63;;;25.70;72.50;;;;;;5052489;28;20053;-65
2022/06/04 07:46:38;;;;;;;11.30;6.93;;;25.50;72.30;;;;;;5046565;28;20140;-67
2022/06/04 07:49:05;;;;;;;9.15;5.80;;;26.00;72.30;;;;;;5049425;28;20045;-65
2022/06/04 07:51:33;;;;;;;12.70;6.03;;;25.70;72.20;;;;;;5051055;28;20048;-64
2022/06/04 07:53:59;;;;;;;9.85;6.03;;;25.70;71.80;;;;;;5051133;28;20041;-65
2022/06/04 07:56:25;;;;;;;9.05;5.97;;;25.70;71.90;;;;;;5044117;28;20041;-64
2022/06/04 07:58:51;;;;;;;8.13;5.20;;;25.80;71.60;;;;;;5040670;28;20174;-68
2022/06/04 08:01:17;;;;;;;9.27;5.88;;;25.90;72.00;;;;;;5029283;28;20115;-65
2022/06/04 08:03:44;;;;;;;7.65;4.90;;;26.10;72.30;;;;;;5028772;28;20044;-64
2022/06/04 08:06:10;;;;;;;11.05;5.53;;;25.80;72.60;;;;;;5068075;28;20045;-66
2022/06/04 08:08:36;;;;;;;9.05;5.60;;;25.80;71.90;;;;;;5068436;28;20179;-62
2022/06/04 08:11:30;;;;;;;8.88;4.68;;;25.70;71.70;;;;;;5050779;28;20061;-72
2022/06/04 08:13:49;;;;;;;7.72;5.10;;;26.10;71.90;;;;;;5029199;28;20053;-64
2022/06/04 08:16:14;;;;;;;8.77;4.97;;;25.90;71.50;;;;;;5060065;28;20025;-64
2022/06/04 08:18:40;;;;;;;9.55;4.75;;;25.90;71.70;;;;;;5031282;28;20045;-62
2022/06/04 08:21:06;;;;;;;9.18;5.50;;;25.80;71.50;;;;;;5053330;28;20033;-64
2022/06/04 08:23:32;;;;;;;8.52;4.72;;;25.90;71.80;;;;;;5051397;28;20071;-64
2022/06/04 08:25:58;;;;;;;8.95;4.68;;;25.90;71.50;;;;;;5049117;28;20037;-65
2022/06/04 08:28:23;;;;;;;8.50;5.00;;;25.90;71.70;;;;;;5049977;28;20041;-65
2022/06/04 08:31:00;;;;;;;7.78;4.28;;;25.80;71.40;;;;;;5050624;28;20433;-64
2022/06/04 08:33:26;;;;;;;6.57;4.32;;;25.90;71.90;;;;;;5051840;28;20040;-65
2022/06/04 08:35:52;;;;;;;8.02;4.13;;;25.90;71.60;;;;;;5053675;28;20049;-66
2022/06/04 08:38:18;;;;;;;7.90;4.13;;;26.10;71.70;;;;;;5048019;28;20054;-64
2022/06/04 08:40:53;;;;;;;6.75;4.20;;;26.00;71.40;;;;;;5052798;28;20049;-65
2022/06/04 08:43:43;;;;;;;9.65;4.50;;;25.90;70.20;;;;;;5052254;28;20478;-64
2022/06/04 08:46:21;;;;;;;9.15;4.13;;;26.00;70.30;;;;;;5020668;28;20057;-64
2022/06/04 08:48:47;;;;;;;9.18;4.63;;;25.90;70.30;;;;;;5031594;28;20064;-64
2022/06/04 08:51:24;;;;;;;6.30;3.88;;;25.90;71.40;;;;;;5051233;28;20092;-65
2022/06/04 08:53:52;;;;;;;8.32;4.10;;;26.10;72.00;;;;;;5052858;28;20044;-65
2022/06/04 08:59:25;;;;;;;7.05;3.90;;;26.10;71.90;;;;;;5030625;28;20064;-71
2022/06/04 09:01:56;;;;;;;8.50;4.35;;;25.90;71.30;;;;;;5038450;28;20049;-74
2022/06/04 09:04:27;;;;;;;7.13;4.15;;;26.10;71.90;;;;;;5044861;28;20136;-62
2022/06/04 09:07:15;;;;;;;7.53;4.03;;;25.80;70.30;;;;;;5032076;28;20044;-64
2022/06/04 09:09:56;;;;;;;6.78;3.65;;;26.00;70.30;;;;;;5040959;28;20196;-64
2022/06/04 09:12:37;;;;;;;5.32;3.58;;;25.90;70.40;;;;;;5036295;28;20057;-64
2022/06/04 09:15:18;;;;;;;7.40;3.65;;;26.10;70.70;;;;;;5035458;28;20044;-64
2022/06/04 09:17:51;;;;;;;5.90;3.40;;;26.10;70.60;;;;;;5034340;28;20048;-64
2022/06/04 09:20:40;;;;;;;5.80;3.83;;;26.10;72.00;;;;;;5033120;28;20045;-64
2022/06/04 09:23:27;;;;;;;5.50;3.67;;;26.00;71.20;;;;;;5064111;28;20049;-62
2022/06/04 09:25:59;;;;;;;5.60;3.47;;;25.90;70.90;;;;;;5050842;28;20040;-62
2022/06/04 09:29:02;;;;;;;5.73;3.60;;;25.80;72.10;;;;;;5051970;28;20055;-63
2022/06/04 09:31:33;;;;;;;6.40;3.28;;;26.10;71.30;;;;;;5047078;28;20045;-62
2022/06/04 09:34:03;;;;;;;8.05;3.58;;;25.60;70.50;;;;;;5052580;28;20052;-62
2022/06/04 09:36:34;;;;;;;7.38;3.67;;;26.10;72.70;;;;;;5055971;28;20076;-64
2022/06/04 09:39:02;;;;;;;5.57;3.42;;;25.80;72.50;;;;;;5034800;28;20064;-64
2022/06/04 09:41:30;;;;;;;5.15;3.35;;;25.60;72.30;;;;;;5054228;28;20087;-64
2022/06/04 09:44:14;;;;;;;5.40;3.28;;;26.00;72.60;;;;;;5056016;28;20207;-64
2022/06/04 09:46:43;;;;;;;5.55;3.30;;;25.70;75.70;;;;;;5055043;28;20080;-65
2022/06/04 09:49:31;;;;;;;5.75;3.40;;;26.00;72.70;;;;;;5028256;28;20099;-64
2022/06/04 09:51:56;;;;;;;6.72;3.35;;;25.80;71.50;;;;;;5055618;28;20487;-65
2022/06/04 09:54:28;;;;;;;7.68;3.47;;;25.60;72.40;;;;;;5054730;28;20049;-64
2022/06/04 09:56:56;;;;;;;5.82;3.50;;;25.50;70.90;;;;;;5053040;28;20530;-64
2022/06/04 09:59:24;;;;;;;4.68;3.00;;;25.70;72.60;;;;;;5038278;28;20102;-64
2022/06/04 10:02:00;;;;;;;5.63;3.20;;;25.70;72.40;;;;;;5055426;28;20103;-65
2022/06/04 10:04:48;;;;;;;5.50;3.10;;;25.80;71.40;;;;;;5054506;28;20060;-65
2022/06/04 10:07:20;;;;;;;5.63;3.10;;;25.80;73.20;;;;;;5053861;28;20098;-64
2022/06/04 10:09:57;;;;;;;7.32;3.50;;;25.70;72.90;;;;;;5070040;28;20044;-66
2022/06/04 10:15:34;;;;;;;5.30;3.33;;;25.80;71.60;;;;;;5039836;28;20135;-70
2022/06/04 10:18:05;;;;;;;4.95;2.92;;;25.70;72.00;;;;;;5043271;28;20061;-62
2022/06/04 10:20:31;;;;;;;6.05;3.15;;;25.60;73.00;;;;;;4997811;28;20073;-62
2022/06/04 10:22:57;;;;;;;5.95;3.42;;;25.50;72.30;;;;;;5034487;28;20049;-65
2022/06/04 10:25:44;;;;;;;6.10;3.15;;;25.60;72.70;;;;;;5052399;28;20051;-65
2022/06/04 10:28:26;;;;;;;5.05;3.15;;;25.60;71.90;;;;;;5032050;28;20049;-65
2022/06/04 10:30:57;;;;;;;6.28;3.40;;;25.50;76.00;;;;;;5018431;28;20060;-65
2022/06/04 10:33:31;;;;;;;6.80;3.10;;;25.40;76.20;;;;;;4985220;28;20053;-64
2022/06/04 10:36:27;;;;;;;7.13;3.35;;;25.50;71.80;;;;;;5022602;28;20049;-64
2022/06/04 10:38:59;;;;;;;8.90;3.63;;;25.30;71.60;;;;;;5027314;28;20050;-78
2022/06/04 10:41:31;;;;;;;6.15;3.22;;;25.60;71.60;;;;;;5017642;28;20049;-76
2022/06/04 10:44:07;;;;;;;7.32;3.33;;;25.50;71.50;;;;;;5015483;28;20449;-65
2022/06/04 10:46:41;;;;;;;6.80;3.28;;;25.50;72.80;;;;;;5033953;28;20447;-64
2022/06/04 10:49:36;;;;;;;6.07;2.90;;;25.50;71.50;;;;;;4988361;28;20057;-63
2022/06/04 10:52:32;;;;;;;4.90;3.05;;;25.60;71.60;;;;;;5046134;28;20056;-64
2022/06/04 10:55:12;;;;;;;7.70;3.38;;;25.50;71.70;;;;;;5035067;28;20052;-64
2022/06/04 10:57:40;;;;;;;5.88;2.92;;;25.40;71.90;;;;;;5036113;28;20056;-65
2022/06/04 11:00:12;;;;;;;5.97;3.13;;;25.30;72.90;;;;;;5052955;28;20398;-64
2022/06/04 11:02:55;;;;;;;6.55;3.33;;;25.50;73.40;;;;;;5032031;28;20041;-66
2022/06/04 11:05:21;;;;;;;5.00;3.10;;;25.50;71.80;;;;;;5032486;28;20480;-63
2022/06/04 11:07:55;;;;;;;7.47;3.67;;;25.30;72.50;;;;;;5034417;28;20049;-80
2022/06/04 11:10:45;;;;;;;5.95;3.38;;;25.40;73.30;;;;;;5035612;28;20056;-63
2022/06/04 11:13:21;;;;;;;5.25;3.35;;;25.40;71.80;;;;;;5031391;28;20049;-64
2022/06/04 11:16:10;;;;;;;5.93;3.50;;;25.60;71.80;;;;;;5035941;28;20391;-65
2022/06/04 11:18:57;;;;;;;6.47;3.63;;;25.50;73.20;;;;;;5052223;28;20045;-64
2022/06/04 11:21:47;;;;;;;5.70;3.22;;;25.70;76.30;;;;;;5051695;28;20443;-64
2022/06/04 11:24:16;;;;;;;5.32;3.30;;;25.30;72.20;;;;;;5051831;28;20394;-68
2022/06/04 11:26:53;;;;;;;6.20;3.00;;;25.60;73.00;;;;;;5052865;28;20083;-71
2022/06/04 11:29:19;;;;;;;6.35;3.30;;;25.70;73.70;;;;;;5036531;28;20133;-81
2022/06/04 11:31:47;;;;;;;6.10;3.17;;;25.60;73.00;;;;;;5036464;28;20128;-65
2022/06/04 11:34:13;;;;;;;4.45;2.70;;;25.40;71.70;;;;;;5052352;28;20057;-65
2022/06/04 11:36:57;;;;;;;5.75;2.90;;;25.70;73.70;;;;;;5052167;28;20052;-62
2022/06/04 11:39:38;;;;;;;6.75;3.20;;;25.60;72.60;;;;;;5042787;28;20449;-63
2022/06/04 11:42:25;;;;;;;5.95;3.00;;;25.50;72.20;;;;;;5045508;28;20041;-63
2022/06/04 11:44:54;;;;;;;7.70;3.17;;;25.30;71.90;;;;;;5048301;28;20053;-67
2022/06/04 11:47:41;;;;;;;5.65;3.17;;;25.40;73.30;;;;;;5052882;28;20090;-70
2022/06/04 11:50:17;;;;;;;6.63;3.58;;;25.60;72.10;;;;;;5051063;28;20049;-66
2022/06/04 11:53:04;;;;;;;6.15;3.30;;;25.70;73.40;;;;;;5053259;28;20737;-65
2022/06/04 11:55:53;;;;;;;5.75;3.30;;;25.70;72.20;;;;;;5037883;28;20135;-63
2022/06/04 11:58:56;;;;;;;5.57;3.30;;;25.60;73.40;;;;;;5031711;28;20057;-64
2022/06/04 12:01:37;;;;;;;5.13;2.65;;;25.70;72.50;;;;;;5053180;28;20558;-66
2022/06/04 12:04:28;;;;;;;6.93;3.00;;;25.70;72.10;;;;;;5037178;28;20047;-64
2022/06/04 12:07:04;;;;;;;5.30;3.00;;;25.80;73.60;;;;;;5011661;28;20135;-65
2022/06/04 12:09:35;;;;;;;5.50;3.22;;;25.60;73.60;;;;;;4963699;28;20065;-65
2022/06/04 12:12:25;;;;;;;4.60;2.80;;;25.50;73.40;;;;;;4979615;28;20046;-71
2022/06/04 12:15:23;;;;;;;7.38;3.15;;;25.50;71.80;;;;;;4982880;28;20502;-65
2022/06/04 12:17:58;;;;;;;5.15;2.85;;;25.70;73.80;;;;;;5011479;28;20046;-65
2022/06/04 12:26:26;;;;;;;5.63;3.30;;;25.70;76.40;;;;;;4983781;28;20064;-71
2022/06/04 12:28:53;;;;;;;6.18;3.00;;;25.60;72.10;;;;;;4981519;28;20412;-67
2022/06/04 12:31:36;;;;;;;6.32;3.40;;;25.30;73.20;;;;;;4959133;28;20058;-65
2022/06/04 12:34:30;;;;;;;6.72;3.25;;;25.70;72.10;;;;;;4979454;28;20058;-65
2022/06/04 12:36:56;;;;;;;4.95;3.08;;;25.50;71.80;;;;;;4991739;28;20049;-72
2022/06/04 12:39:36;;;;;;;7.25;3.40;;;25.60;72.70;;;;;;4998910;28;20579;-64
2022/06/04 12:42:11;;;;;;;6.30;3.10;;;25.70;72.10;;;;;;4979578;28;20123;-65
2022/06/04 12:44:37;;;;;;;5.55;2.97;;;25.70;73.50;;;;;;5006536;28;20092;-64
2022/06/04 12:47:35;;;;;;;6.25;3.08;;;25.60;73.10;;;;;;5052091;28;20045;-65
2022/06/04 12:50:13;;;;;;;5.63;3.20;;;25.40;73.20;;;;;;5014925;28;20060;-64
2022/06/04 12:53:00;;;;;;;5.32;3.10;;;25.60;73.30;;;;;;5014581;28;20055;-64
2022/06/04 12:55:31;;;;;;;5.00;3.08;;;25.70;71.90;;;;;;5001626;28;20541;-65
2022/06/04 12:58:24;;;;;;;5.15;3.10;;;25.60;73.20;;;;;;5032916;28;20048;-65
2022/06/04 13:00:58;;;;;;;6.85;3.65;;;25.40;71.60;;;;;;5017022;28;20057;-64
2022/06/04 13:03:42;;;;;;;6.10;3.38;;;25.70;73.40;;;;;;5027752;28;20519;-63
2022/06/04 13:06:36;;;;;;;5.65;3.00;;;25.70;73.50;;;;;;4998493;28;20068;-64
2022/06/04 13:09:23;;;;;;;5.72;2.90;;;25.40;71.90;;;;;;5024662;28;20065;-64
2022/06/04 13:11:52;;;;;;;6.13;3.28;;;25.40;71.90;;;;;;5026992;28;20053;-64
2022/06/04 13:14:36;;;;;;;5.20;3.00;;;25.60;72.90;;;;;;4998350;28;20057;-63
2022/06/04 13:17:42;;;;;;;4.68;2.88;;;25.60;72.10;;;;;;5037628;28;20188;-62
2022/06/04 13:20:32;;;;;;;6.97;3.38;;;25.40;71.90;;;;;;4993797;28;20061;-62
2022/06/04 13:23:07;;;;;;;4.85;2.95;;;25.40;71.80;;;;;;4990107;28;20065;-62
2022/06/04 13:25:46;;;;;;;6.15;3.10;;;25.40;73.30;;;;;;4991485;28;20073;-62
2022/06/04 13:28:24;;;;;;;5.63;3.38;;;25.20;73.10;;;;;;4975629;28;20061;-62
2022/06/04 13:30:51;;;;;;;5.32;3.05;;;25.30;73.10;;;;;;4994792;28;20034;-63
2022/06/04 13:33:17;;;;;;;6.00;2.70;;;25.30;73.10;;;;;;4992355;28;20125;-63
2022/06/04 13:35:49;;;;;;;5.72;2.90;;;25.40;72.90;;;;;;4978629;28;20169;-62
2022/06/04 13:38:48;;;;;;;4.78;3.00;;;25.50;73.60;;;;;;4998879;28;20081;-64